sensor_id;sensor_type;location;lat;lon;timestamp;temperature;humidity
7738;DHT22;29398;45.328;5.558;2023-05-02T00:00:33;13.10;99.90
7738;DHT22;29398;45.328;5.558;2023-05-02T00:01:36;13.10;99.90
7738;DHT22;29398;45.328;5.558;2023-05-02T00:02:38;13.20;99.90
7738;DHT22;29398;45.328;5.558;2023-05-02T00:03:40;13.20;99.90
7738;DHT22;29398;45.328;5.558;2023-05-02T00:04:43;13.20;99.90
7738;DHT22;29398;45.328;5.558;2023-05-02T00:05:44;13.10;99.90
7738;DHT22;29398;45.328;5.558;2023-05-02T00:06:46;13.10;99.90
7738;DHT22;29398;45.328;5.558;2023-05-02T00:07:47;13.10;99.90
7738;DHT22;29398;45.328;5.558;2023-05-02T00:08:49;13.10;99.90
7738;DHT22;29398;45.328;5.558;2023-05-02T00:09:50;13.20;99.90
7738;DHT22;29398;45.328;5.558;2023-05-02T00:10:54;13.20;99.90
7738;DHT22;29398;45.328;5.558;2023-05-02T00:11:55;13.20;99.90
7738;DHT22;29398;45.328;5.558;2023-05-02T00:12:57;13.20;99.90
7738;DHT22;29398;45.328;5.558;2023-05-02T00:13:58;13.20;99.90
7738;DHT22;29398;45.328;5.558;2023-05-02T00:15:00;13.20;99.90
7738;DHT22;29398;45.328;5.558;2023-05-02T00:16:01;13.20;99.90
7738;DHT22;29398;45.328;5.558;2023-05-02T00:17:03;13.20;99.90
7738;DHT22;29398;45.328;5.558;2023-05-02T00:18:04;13.30;99.90
7738;DHT22;29398;45.328;5.558;2023-05-02T00:19:06;13.30;99.90
7738;DHT22;29398;45.328;5.558;2023-05-02T00:20:08;13.30;99.90
7738;DHT22;29398;45.328;5.558;2023-05-02T00:21:11;13.30;99.90
7738;DHT22;29398;45.328;5.558;2023-05-02T00:22:13;13.30;99.90
7738;DHT22;29398;45.328;5.558;2023-05-02T00:23:14;13.30;99.90
7738;DHT22;29398;45.328;5.558;2023-05-02T00:24:16;13.30;99.90
7738;DHT22;29398;45.328;5.558;2023-05-02T00:25:18;13.30;99.90
7738;DHT22;29398;45.328;5.558;2023-05-02T00:26:21;13.30;99.90
7738;DHT22;29398;45.328;5.558;2023-05-02T00:27:22;13.40;99.90
7738;DHT22;29398;45.328;5.558;2023-05-02T00:28:24;13.40;99.90
7738;DHT22;29398;45.328;5.558;2023-05-02T00:29:26;13.30;99.90
7738;DHT22;29398;45.328;5.558;2023-05-02T00:30:28;13.30;99.90
7738;DHT22;29398;45.328;5.558;2023-05-02T00:31:29;13.30;99.90
7738;DHT22;29398;45.328;5.558;2023-05-02T00:32:31;13.30;99.90
7738;DHT22;29398;45.328;5.558;2023-05-02T00:33:32;13.20;99.90
7738;DHT22;29398;45.328;5.558;2023-05-02T00:34:34;13.20;99.90
7738;DHT22;29398;45.328;5.558;2023-05-02T00:35:35;13.10;99.90
7738;DHT22;29398;45.328;5.558;2023-05-02T00:36:37;13.10;99.90
7738;DHT22;29398;45.328;5.558;2023-05-02T00:37:38;13.10;99.90
7738;DHT22;29398;45.328;5.558;2023-05-02T00:38:41;13.10;99.90
7738;DHT22;29398;45.328;5.558;2023-05-02T00:39:42;13.10;99.90
7738;DHT22;29398;45.328;5.558;2023-05-02T00:40:46;13.10;99.90
7738;DHT22;29398;45.328;5.558;2023-05-02T00:41:55;13.10;99.90
7738;DHT22;29398;45.328;5.558;2023-05-02T00:42:57;13.10;99.90
7738;DHT22;29398;45.328;5.558;2023-05-02T00:43:58;13.20;99.90
7738;DHT22;29398;45.328;5.558;2023-05-02T00:45:01;13.20;99.90
7738;DHT22;29398;45.328;5.558;2023-05-02T00:46:03;13.20;99.90
7738;DHT22;29398;45.328;5.558;2023-05-02T00:47:05;13.20;99.90
7738;DHT22;29398;45.328;5.558;2023-05-02T00:48:07;13.20;99.90
7738;DHT22;29398;45.328;5.558;2023-05-02T00:49:09;13.20;99.90
7738;DHT22;29398;45.328;5.558;2023-05-02T00:50:10;13.20;99.90
7738;DHT22;29398;45.328;5.558;2023-05-02T00:51:12;13.20;99.90
7738;DHT22;29398;45.328;5.558;2023-05-02T00:52:14;13.10;99.90
7738;DHT22;29398;45.328;5.558;2023-05-02T00:53:16;13.10;99.90
7738;DHT22;29398;45.328;5.558;2023-05-02T00:54:17;13.00;99.90
7738;DHT22;29398;45.328;5.558;2023-05-02T00:55:19;12.90;99.90
7738;DHT22;29398;45.328;5.558;2023-05-02T00:56:20;12.90;99.90
7738;DHT22;29398;45.328;5.558;2023-05-02T00:57:24;12.90;99.90
7738;DHT22;29398;45.328;5.558;2023-05-02T00:58:25;12.90;99.90
7738;DHT22;29398;45.328;5.558;2023-05-02T00:59:28;12.90;99.90
7738;DHT22;29398;45.328;5.558;2023-05-02T01:00:35;12.90;99.90
7738;DHT22;29398;45.328;5.558;2023-05-02T01:01:49;12.90;99.90
7738;DHT22;29398;45.328;5.558;2023-05-02T01:03:04;12.90;99.90
7738;DHT22;29398;45.328;5.558;2023-05-02T01:04:22;12.80;99.90
7738;DHT22;29398;45.328;5.558;2023-05-02T01:05:35;12.80;99.90
7738;DHT22;29398;45.328;5.558;2023-05-02T01:06:49;12.80;99.90
7738;DHT22;29398;45.328;5.558;2023-05-02T01:08:09;12.80;99.90
7738;DHT22;29398;45.328;5.558;2023-05-02T01:09:22;12.80;99.90
7738;DHT22;29398;45.328;5.558;2023-05-02T01:10:32;12.80;99.90
7738;DHT22;29398;45.328;5.558;2023-05-02T01:11:45;12.90;99.90
7738;DHT22;29398;45.328;5.558;2023-05-02T01:12:57;12.90;99.90
7738;DHT22;29398;45.328;5.558;2023-05-02T01:14:00;12.90;99.90
7738;DHT22;29398;45.328;5.558;2023-05-02T01:15:08;12.90;99.90
7738;DHT22;29398;45.328;5.558;2023-05-02T01:16:12;12.90;99.90
7738;DHT22;29398;45.328;5.558;2023-05-02T01:17:16;12.90;99.90
7738;DHT22;29398;45.328;5.558;2023-05-02T01:18:22;12.90;99.90
7738;DHT22;29398;45.328;5.558;2023-05-02T01:19:30;12.80;99.90
7738;DHT22;29398;45.328;5.558;2023-05-02T01:20:36;12.90;99.90
7738;DHT22;29398;45.328;5.558;2023-05-02T01:21:41;12.80;99.90
7738;DHT22;29398;45.328;5.558;2023-05-02T01:22:44;12.80;99.90
7738;DHT22;29398;45.328;5.558;2023-05-02T01:23:56;12.80;99.90
7738;DHT22;29398;45.328;5.558;2023-05-02T01:25:07;12.70;99.90
7738;DHT22;29398;45.328;5.558;2023-05-02T01:26:16;12.70;99.90
7738;DHT22;29398;45.328;5.558;2023-05-02T01:27:33;12.70;99.90
7738;DHT22;29398;45.328;5.558;2023-05-02T01:28:56;12.60;99.90
7738;DHT22;29398;45.328;5.558;2023-05-02T01:29:59;12.60;99.90
7738;DHT22;29398;45.328;5.558;2023-05-02T01:31:03;12.40;99.90
7738;DHT22;29398;45.328;5.558;2023-05-02T01:32:07;12.50;99.90
7738;DHT22;29398;45.328;5.558;2023-05-02T01:33:12;12.50;99.90
7738;DHT22;29398;45.328;5.558;2023-05-02T01:34:16;12.50;99.90
7738;DHT22;29398;45.328;5.558;2023-05-02T01:35:20;12.30;99.90
7738;DHT22;29398;45.328;5.558;2023-05-02T01:36:24;12.30;99.90
7738;DHT22;29398;45.328;5.558;2023-05-02T01:37:28;12.30;99.90
7738;DHT22;29398;45.328;5.558;2023-05-02T01:38:30;12.30;99.90
7738;DHT22;29398;45.328;5.558;2023-05-02T01:39:37;12.30;99.90
7738;DHT22;29398;45.328;5.558;2023-05-02T01:40:41;12.30;99.90
7738;DHT22;29398;45.328;5.558;2023-05-02T01:41:47;12.30;99.90
7738;DHT22;29398;45.328;5.558;2023-05-02T01:42:50;12.20;99.90
7738;DHT22;29398;45.328;5.558;2023-05-02T01:43:56;12.20;99.90
7738;DHT22;29398;45.328;5.558;2023-05-02T01:44:59;12.20;99.90
7738;DHT22;29398;45.328;5.558;2023-05-02T01:46:03;12.20;99.90
7738;DHT22;29398;45.328;5.558;2023-05-02T01:47:08;12.20;99.90
7738;DHT22;29398;45.328;5.558;2023-05-02T01:48:11;12.20;99.90
7738;DHT22;29398;45.328;5.558;2023-05-02T01:49:14;12.20;99.90
7738;DHT22;29398;45.328;5.558;2023-05-02T01:50:20;12.10;99.90
7738;DHT22;29398;45.328;5.558;2023-05-02T01:51:26;12.20;99.90
7738;DHT22;29398;45.328;5.558;2023-05-02T01:53:34;12.20;99.90
7738;DHT22;29398;45.328;5.558;2023-05-02T01:54:39;12.10;99.90
7738;DHT22;29398;45.328;5.558;2023-05-02T01:55:43;12.10;99.90
7738;DHT22;29398;45.328;5.558;2023-05-02T01:56:47;12.10;99.90
7738;DHT22;29398;45.328;5.558;2023-05-02T01:57:50;12.10;99.90
7738;DHT22;29398;45.328;5.558;2023-05-02T01:58:56;12.10;99.90
7738;DHT22;29398;45.328;5.558;2023-05-02T01:59:58;12.10;99.90
7738;DHT22;29398;45.328;5.558;2023-05-02T02:01:01;12.10;99.90
7738;DHT22;29398;45.328;5.558;2023-05-02T02:02:04;12.10;99.90
7738;DHT22;29398;45.328;5.558;2023-05-02T02:03:08;12.10;99.90
7738;DHT22;29398;45.328;5.558;2023-05-02T02:04:11;12.10;99.90
7738;DHT22;29398;45.328;5.558;2023-05-02T02:05:15;12.10;99.90
7738;DHT22;29398;45.328;5.558;2023-05-02T02:06:18;12.10;99.90
7738;DHT22;29398;45.328;5.558;2023-05-02T02:07:21;12.00;99.90
7738;DHT22;29398;45.328;5.558;2023-05-02T02:08:22;12.00;99.90
7738;DHT22;29398;45.328;5.558;2023-05-02T02:09:25;12.00;99.90
7738;DHT22;29398;45.328;5.558;2023-05-02T02:10:29;12.00;99.90
7738;DHT22;29398;45.328;5.558;2023-05-02T02:11:34;12.00;99.90
7738;DHT22;29398;45.328;5.558;2023-05-02T02:12:39;12.00;99.90
7738;DHT22;29398;45.328;5.558;2023-05-02T02:13:47;12.00;99.90
7738;DHT22;29398;45.328;5.558;2023-05-02T02:14:55;12.00;99.90
7738;DHT22;29398;45.328;5.558;2023-05-02T02:16:03;12.00;99.90
7738;DHT22;29398;45.328;5.558;2023-05-02T02:17:12;12.00;99.90
7738;DHT22;29398;45.328;5.558;2023-05-02T02:18:18;12.00;99.90
7738;DHT22;29398;45.328;5.558;2023-05-02T02:19:22;11.90;99.90
7738;DHT22;29398;45.328;5.558;2023-05-02T02:20:26;11.90;99.90
7738;DHT22;29398;45.328;5.558;2023-05-02T02:21:29;11.80;99.90
7738;DHT22;29398;45.328;5.558;2023-05-02T02:22:35;11.90;99.90
7738;DHT22;29398;45.328;5.558;2023-05-02T02:23:37;11.80;99.90
7738;DHT22;29398;45.328;5.558;2023-05-02T02:24:43;11.90;99.90
7738;DHT22;29398;45.328;5.558;2023-05-02T02:25:46;11.80;99.90
7738;DHT22;29398;45.328;5.558;2023-05-02T02:26:50;11.80;99.90
7738;DHT22;29398;45.328;5.558;2023-05-02T02:28:55;11.80;99.90
7738;DHT22;29398;45.328;5.558;2023-05-02T02:29:58;11.70;99.90
7738;DHT22;29398;45.328;5.558;2023-05-02T02:31:00;11.70;99.90
7738;DHT22;29398;45.328;5.558;2023-05-02T02:32:01;11.70;99.90
7738;DHT22;29398;45.328;5.558;2023-05-02T02:33:03;11.70;99.90
7738;DHT22;29398;45.328;5.558;2023-05-02T02:34:05;11.70;99.90
7738;DHT22;29398;45.328;5.558;2023-05-02T02:35:08;11.70;99.90
7738;DHT22;29398;45.328;5.558;2023-05-02T02:36:13;11.70;99.90
7738;DHT22;29398;45.328;5.558;2023-05-02T02:37:18;11.70;99.90
7738;DHT22;29398;45.328;5.558;2023-05-02T02:38:27;11.70;99.90
7738;DHT22;29398;45.328;5.558;2023-05-02T02:39:42;11.60;99.90
7738;DHT22;29398;45.328;5.558;2023-05-02T02:40:50;11.60;99.90
7738;DHT22;29398;45.328;5.558;2023-05-02T02:42:04;11.60;99.90
7738;DHT22;29398;45.328;5.558;2023-05-02T02:43:09;11.60;99.90
7738;DHT22;29398;45.328;5.558;2023-05-02T02:44:25;11.60;99.90
7738;DHT22;29398;45.328;5.558;2023-05-02T02:45:34;11.60;99.90
7738;DHT22;29398;45.328;5.558;2023-05-02T02:46:47;11.60;99.90
7738;DHT22;29398;45.328;5.558;2023-05-02T02:47:53;11.50;99.90
7738;DHT22;29398;45.328;5.558;2023-05-02T02:49:09;11.50;99.90
7738;DHT22;29398;45.328;5.558;2023-05-02T02:50:17;11.50;99.90
7738;DHT22;29398;45.328;5.558;2023-05-02T02:51:24;11.50;99.90
7738;DHT22;29398;45.328;5.558;2023-05-02T02:52:34;11.50;99.90
7738;DHT22;29398;45.328;5.558;2023-05-02T02:53:51;11.50;99.90
7738;DHT22;29398;45.328;5.558;2023-05-02T02:54:59;11.50;99.90
7738;DHT22;29398;45.328;5.558;2023-05-02T02:56:14;11.50;99.90
7738;DHT22;29398;45.328;5.558;2023-05-02T02:57:26;11.50;99.90
7738;DHT22;29398;45.328;5.558;2023-05-02T02:58:35;11.50;99.90
7738;DHT22;29398;45.328;5.558;2023-05-02T02:59:45;11.50;99.90
7738;DHT22;29398;45.328;5.558;2023-05-02T03:00:49;11.50;99.90
7738;DHT22;29398;45.328;5.558;2023-05-02T03:01:58;11.50;99.90
7738;DHT22;29398;45.328;5.558;2023-05-02T03:03:02;11.50;99.90
7738;DHT22;29398;45.328;5.558;2023-05-02T03:04:06;11.50;99.90
7738;DHT22;29398;45.328;5.558;2023-05-02T03:05:10;11.50;99.90
7738;DHT22;29398;45.328;5.558;2023-05-02T03:06:12;11.50;99.90
7738;DHT22;29398;45.328;5.558;2023-05-02T03:07:15;11.50;99.90
7738;DHT22;29398;45.328;5.558;2023-05-02T03:08:16;11.40;99.90
7738;DHT22;29398;45.328;5.558;2023-05-02T03:09:18;11.40;99.90
7738;DHT22;29398;45.328;5.558;2023-05-02T03:10:22;11.40;99.90
7738;DHT22;29398;45.328;5.558;2023-05-02T03:11:24;11.40;99.90
7738;DHT22;29398;45.328;5.558;2023-05-02T03:12:26;11.40;99.90
7738;DHT22;29398;45.328;5.558;2023-05-02T03:13:27;11.40;99.90
7738;DHT22;29398;45.328;5.558;2023-05-02T03:14:29;11.40;99.90
7738;DHT22;29398;45.328;5.558;2023-05-02T03:17:05;11.40;99.90
7738;DHT22;29398;45.328;5.558;2023-05-02T03:18:09;11.40;99.90
7738;DHT22;29398;45.328;5.558;2023-05-02T03:19:10;11.40;99.90
7738;DHT22;29398;45.328;5.558;2023-05-02T03:20:12;11.40;99.90
7738;DHT22;29398;45.328;5.558;2023-05-02T03:21:13;11.40;99.90
7738;DHT22;29398;45.328;5.558;2023-05-02T03:22:16;11.40;99.90
7738;DHT22;29398;45.328;5.558;2023-05-02T03:23:18;11.50;99.90
7738;DHT22;29398;45.328;5.558;2023-05-02T03:24:19;11.40;99.90
7738;DHT22;29398;45.328;5.558;2023-05-02T03:25:22;11.40;99.90
7738;DHT22;29398;45.328;5.558;2023-05-02T03:26:24;11.40;99.90
7738;DHT22;29398;45.328;5.558;2023-05-02T03:27:27;11.40;99.90
7738;DHT22;29398;45.328;5.558;2023-05-02T03:28:28;11.50;99.90
7738;DHT22;29398;45.328;5.558;2023-05-02T03:29:31;11.50;99.90
7738;DHT22;29398;45.328;5.558;2023-05-02T03:30:32;11.50;99.90
7738;DHT22;29398;45.328;5.558;2023-05-02T03:31:34;11.50;99.90
7738;DHT22;29398;45.328;5.558;2023-05-02T03:32:37;11.50;99.90
7738;DHT22;29398;45.328;5.558;2023-05-02T03:33:40;11.50;99.90
7738;DHT22;29398;45.328;5.558;2023-05-02T03:34:41;11.50;99.90
7738;DHT22;29398;45.328;5.558;2023-05-02T03:35:44;11.50;99.90
7738;DHT22;29398;45.328;5.558;2023-05-02T03:36:46;11.60;99.90
7738;DHT22;29398;45.328;5.558;2023-05-02T03:37:48;11.60;99.90
7738;DHT22;29398;45.328;5.558;2023-05-02T03:38:50;11.60;99.90
7738;DHT22;29398;45.328;5.558;2023-05-02T03:39:53;11.60;99.90
7738;DHT22;29398;45.328;5.558;2023-05-02T03:40:56;11.60;99.90
7738;DHT22;29398;45.328;5.558;2023-05-02T03:41:58;11.60;99.90
7738;DHT22;29398;45.328;5.558;2023-05-02T03:43:01;11.60;99.90
7738;DHT22;29398;45.328;5.558;2023-05-02T03:44:06;11.70;99.90
7738;DHT22;29398;45.328;5.558;2023-05-02T03:46:11;11.60;99.90
7738;DHT22;29398;45.328;5.558;2023-05-02T03:47:15;11.70;99.90
7738;DHT22;29398;45.328;5.558;2023-05-02T03:48:19;11.70;99.90
7738;DHT22;29398;45.328;5.558;2023-05-02T03:49:21;11.70;99.90
7738;DHT22;29398;45.328;5.558;2023-05-02T03:50:26;11.60;99.90
7738;DHT22;29398;45.328;5.558;2023-05-02T03:51:28;11.60;99.90
7738;DHT22;29398;45.328;5.558;2023-05-02T03:52:32;11.60;99.90
7738;DHT22;29398;45.328;5.558;2023-05-02T03:53:34;11.60;99.90
7738;DHT22;29398;45.328;5.558;2023-05-02T03:54:36;11.60;99.90
7738;DHT22;29398;45.328;5.558;2023-05-02T03:55:39;11.50;99.90
7738;DHT22;29398;45.328;5.558;2023-05-02T03:56:40;11.50;99.90
7738;DHT22;29398;45.328;5.558;2023-05-02T03:57:52;11.50;99.90
7738;DHT22;29398;45.328;5.558;2023-05-02T03:58:54;11.40;99.90
7738;DHT22;29398;45.328;5.558;2023-05-02T03:59:59;11.50;99.90
7738;DHT22;29398;45.328;5.558;2023-05-02T04:01:12;11.40;99.90
7738;DHT22;29398;45.328;5.558;2023-05-02T04:02:16;11.50;99.90
7738;DHT22;29398;45.328;5.558;2023-05-02T04:03:23;11.40;99.90
7738;DHT22;29398;45.328;5.558;2023-05-02T04:04:25;11.40;99.90
7738;DHT22;29398;45.328;5.558;2023-05-02T04:05:28;11.40;99.90
7738;DHT22;29398;45.328;5.558;2023-05-02T04:06:30;11.40;99.90
7738;DHT22;29398;45.328;5.558;2023-05-02T04:07:35;11.40;99.90
7738;DHT22;29398;45.328;5.558;2023-05-02T04:08:40;11.40;99.90
7738;DHT22;29398;45.328;5.558;2023-05-02T04:09:41;11.40;99.90
7738;DHT22;29398;45.328;5.558;2023-05-02T04:10:45;11.40;99.90
7738;DHT22;29398;45.328;5.558;2023-05-02T04:11:47;11.40;99.90
7738;DHT22;29398;45.328;5.558;2023-05-02T04:12:49;11.40;99.90
7738;DHT22;29398;45.328;5.558;2023-05-02T04:13:52;11.40;99.90
7738;DHT22;29398;45.328;5.558;2023-05-02T04:14:54;11.40;99.90
7738;DHT22;29398;45.328;5.558;2023-05-02T04:15:59;11.50;99.90
7738;DHT22;29398;45.328;5.558;2023-05-02T04:17:05;11.50;99.90
7738;DHT22;29398;45.328;5.558;2023-05-02T04:18:14;11.50;99.90
7738;DHT22;29398;45.328;5.558;2023-05-02T04:19:17;11.50;99.90
7738;DHT22;29398;45.328;5.558;2023-05-02T04:20:19;11.50;99.90
7738;DHT22;29398;45.328;5.558;2023-05-02T04:21:24;11.40;99.90
7738;DHT22;29398;45.328;5.558;2023-05-02T04:22:26;11.50;99.90
7738;DHT22;29398;45.328;5.558;2023-05-02T04:23:32;11.50;99.90
7738;DHT22;29398;45.328;5.558;2023-05-02T04:24:35;11.50;99.90
7738;DHT22;29398;45.328;5.558;2023-05-02T04:25:37;11.50;99.90
7738;DHT22;29398;45.328;5.558;2023-05-02T04:26:38;11.50;99.90
7738;DHT22;29398;45.328;5.558;2023-05-02T04:27:44;11.50;99.90
7738;DHT22;29398;45.328;5.558;2023-05-02T04:28:48;11.50;99.90
7738;DHT22;29398;45.328;5.558;2023-05-02T04:29:52;11.40;99.90
7738;DHT22;29398;45.328;5.558;2023-05-02T04:30:55;11.40;99.90
7738;DHT22;29398;45.328;5.558;2023-05-02T04:31:58;11.40;99.90
7738;DHT22;29398;45.328;5.558;2023-05-02T04:33:02;11.50;99.90
7738;DHT22;29398;45.328;5.558;2023-05-02T04:35:17;11.50;99.90
7738;DHT22;29398;45.328;5.558;2023-05-02T04:36:19;11.50;99.90
7738;DHT22;29398;45.328;5.558;2023-05-02T04:37:21;11.50;99.90
7738;DHT22;29398;45.328;5.558;2023-05-02T04:38:23;11.50;99.90
7738;DHT22;29398;45.328;5.558;2023-05-02T04:39:26;11.40;99.90
7738;DHT22;29398;45.328;5.558;2023-05-02T04:40:34;11.40;99.90
7738;DHT22;29398;45.328;5.558;2023-05-02T04:41:39;11.40;99.90
7738;DHT22;29398;45.328;5.558;2023-05-02T04:42:41;11.40;99.90
7738;DHT22;29398;45.328;5.558;2023-05-02T04:43:50;11.40;99.90
7738;DHT22;29398;45.328;5.558;2023-05-02T04:44:52;11.40;99.90
7738;DHT22;29398;45.328;5.558;2023-05-02T04:45:54;11.40;99.90
7738;DHT22;29398;45.328;5.558;2023-05-02T04:47:02;11.50;99.90
7738;DHT22;29398;45.328;5.558;2023-05-02T04:48:04;11.50;99.90
7738;DHT22;29398;45.328;5.558;2023-05-02T04:49:06;11.50;99.90
7738;DHT22;29398;45.328;5.558;2023-05-02T04:50:09;11.50;99.90
7738;DHT22;29398;45.328;5.558;2023-05-02T04:51:13;11.50;99.90
7738;DHT22;29398;45.328;5.558;2023-05-02T04:52:14;11.40;99.90
7738;DHT22;29398;45.328;5.558;2023-05-02T04:53:16;11.40;99.90
7738;DHT22;29398;45.328;5.558;2023-05-02T04:54:17;11.40;99.90
7738;DHT22;29398;45.328;5.558;2023-05-02T04:55:19;11.40;99.90
7738;DHT22;29398;45.328;5.558;2023-05-02T04:56:21;11.40;99.90
7738;DHT22;29398;45.328;5.558;2023-05-02T04:57:23;11.40;99.90
7738;DHT22;29398;45.328;5.558;2023-05-02T04:58:29;11.40;99.90
7738;DHT22;29398;45.328;5.558;2023-05-02T04:59:35;11.40;99.90
7738;DHT22;29398;45.328;5.558;2023-05-02T05:00:37;11.40;99.90
7738;DHT22;29398;45.328;5.558;2023-05-02T05:01:39;11.40;99.90
7738;DHT22;29398;45.328;5.558;2023-05-02T05:02:42;11.40;99.90
7738;DHT22;29398;45.328;5.558;2023-05-02T05:03:46;11.50;99.90
7738;DHT22;29398;45.328;5.558;2023-05-02T05:04:49;11.40;99.90
7738;DHT22;29398;45.328;5.558;2023-05-02T05:05:53;11.40;99.90
7738;DHT22;29398;45.328;5.558;2023-05-02T05:06:58;11.40;99.90
7738;DHT22;29398;45.328;5.558;2023-05-02T05:08:02;11.50;99.90
7738;DHT22;29398;45.328;5.558;2023-05-02T05:09:07;11.50;99.90
7738;DHT22;29398;45.328;5.558;2023-05-02T05:10:10;11.50;99.90
7738;DHT22;29398;45.328;5.558;2023-05-02T05:11:17;11.50;99.90
7738;DHT22;29398;45.328;5.558;2023-05-02T05:12:19;11.50;99.90
7738;DHT22;29398;45.328;5.558;2023-05-02T05:13:20;11.60;99.90
7738;DHT22;29398;45.328;5.558;2023-05-02T05:14:23;11.60;99.90
7738;DHT22;29398;45.328;5.558;2023-05-02T05:15:27;11.60;99.90
7738;DHT22;29398;45.328;5.558;2023-05-02T05:16:32;11.70;99.90
7738;DHT22;29398;45.328;5.558;2023-05-02T05:17:34;11.60;99.90
7738;DHT22;29398;45.328;5.558;2023-05-02T05:18:37;11.70;99.90
7738;DHT22;29398;45.328;5.558;2023-05-02T05:19:41;11.80;99.90
7738;DHT22;29398;45.328;5.558;2023-05-02T05:20:43;11.80;99.90
7738;DHT22;29398;45.328;5.558;2023-05-02T05:21:46;11.70;99.90
7738;DHT22;29398;45.328;5.558;2023-05-02T05:22:52;11.70;99.90
7738;DHT22;29398;45.328;5.558;2023-05-02T05:23:55;11.80;99.90
7738;DHT22;29398;45.328;5.558;2023-05-02T05:25:00;11.80;99.90
7738;DHT22;29398;45.328;5.558;2023-05-02T05:26:08;11.90;99.90
7738;DHT22;29398;45.328;5.558;2023-05-02T05:27:11;11.90;99.90
7738;DHT22;29398;45.328;5.558;2023-05-02T05:28:13;11.90;99.90
7738;DHT22;29398;45.328;5.558;2023-05-02T05:29:14;12.00;99.90
7738;DHT22;29398;45.328;5.558;2023-05-02T05:30:18;12.00;99.90
7738;DHT22;29398;45.328;5.558;2023-05-02T05:31:19;12.00;99.90
7738;DHT22;29398;45.328;5.558;2023-05-02T05:32:26;12.00;99.90
7738;DHT22;29398;45.328;5.558;2023-05-02T05:33:29;11.90;99.90
7738;DHT22;29398;45.328;5.558;2023-05-02T05:34:32;11.90;99.90
7738;DHT22;29398;45.328;5.558;2023-05-02T05:35:35;11.90;99.90
7738;DHT22;29398;45.328;5.558;2023-05-02T05:36:39;11.90;99.90
7738;DHT22;29398;45.328;5.558;2023-05-02T05:37:40;11.90;99.90
7738;DHT22;29398;45.328;5.558;2023-05-02T05:38:46;11.90;99.90
7738;DHT22;29398;45.328;5.558;2023-05-02T05:39:48;11.90;99.90
7738;DHT22;29398;45.328;5.558;2023-05-02T05:40:51;12.00;99.90
7738;DHT22;29398;45.328;5.558;2023-05-02T05:41:52;11.90;99.90
7738;DHT22;29398;45.328;5.558;2023-05-02T05:42:56;12.00;99.90
7738;DHT22;29398;45.328;5.558;2023-05-02T05:44:02;12.00;99.90
7738;DHT22;29398;45.328;5.558;2023-05-02T05:45:06;12.00;99.90
7738;DHT22;29398;45.328;5.558;2023-05-02T05:46:07;12.00;99.90
7738;DHT22;29398;45.328;5.558;2023-05-02T05:47:11;12.00;99.90
7738;DHT22;29398;45.328;5.558;2023-05-02T05:48:12;12.10;99.90
7738;DHT22;29398;45.328;5.558;2023-05-02T05:49:18;12.10;99.90
7738;DHT22;29398;45.328;5.558;2023-05-02T05:50:20;12.10;99.90
7738;DHT22;29398;45.328;5.558;2023-05-02T05:51:22;12.20;99.90
7738;DHT22;29398;45.328;5.558;2023-05-02T05:52:23;12.20;99.90
7738;DHT22;29398;45.328;5.558;2023-05-02T05:53:27;12.20;99.90
7738;DHT22;29398;45.328;5.558;2023-05-02T05:54:31;12.30;99.90
7738;DHT22;29398;45.328;5.558;2023-05-02T05:55:34;12.40;99.90
7738;DHT22;29398;45.328;5.558;2023-05-02T05:56:36;12.40;99.90
7738;DHT22;29398;45.328;5.558;2023-05-02T05:57:45;12.50;99.90
7738;DHT22;29398;45.328;5.558;2023-05-02T05:58:47;12.50;99.90
7738;DHT22;29398;45.328;5.558;2023-05-02T05:59:50;12.60;99.90
7738;DHT22;29398;45.328;5.558;2023-05-02T06:00:53;12.60;99.90
7738;DHT22;29398;45.328;5.558;2023-05-02T06:01:55;12.50;99.90
7738;DHT22;29398;45.328;5.558;2023-05-02T06:02:57;12.50;99.90
7738;DHT22;29398;45.328;5.558;2023-05-02T06:04:05;12.60;99.90
7738;DHT22;29398;45.328;5.558;2023-05-02T06:05:10;12.60;99.90
7738;DHT22;29398;45.328;5.558;2023-05-02T06:06:11;12.60;99.90
7738;DHT22;29398;45.328;5.558;2023-05-02T06:07:13;12.60;99.90
7738;DHT22;29398;45.328;5.558;2023-05-02T06:08:15;12.60;99.90
7738;DHT22;29398;45.328;5.558;2023-05-02T06:09:17;12.60;99.90
7738;DHT22;29398;45.328;5.558;2023-05-02T06:10:19;12.70;99.90
7738;DHT22;29398;45.328;5.558;2023-05-02T06:11:22;12.70;99.90
7738;DHT22;29398;45.328;5.558;2023-05-02T06:12:24;12.70;99.90
7738;DHT22;29398;45.328;5.558;2023-05-02T06:13:26;12.70;99.90
7738;DHT22;29398;45.328;5.558;2023-05-02T06:14:27;12.60;99.90
7738;DHT22;29398;45.328;5.558;2023-05-02T06:15:32;12.60;99.90
7738;DHT22;29398;45.328;5.558;2023-05-02T06:16:33;12.70;99.90
7738;DHT22;29398;45.328;5.558;2023-05-02T06:17:35;12.80;99.90
7738;DHT22;29398;45.328;5.558;2023-05-02T06:18:36;12.80;99.90
7738;DHT22;29398;45.328;5.558;2023-05-02T06:19:38;12.90;99.90
7738;DHT22;29398;45.328;5.558;2023-05-02T06:20:40;12.90;99.90
7738;DHT22;29398;45.328;5.558;2023-05-02T06:21:42;12.80;99.90
7738;DHT22;29398;45.328;5.558;2023-05-02T06:22:43;12.90;99.90
7738;DHT22;29398;45.328;5.558;2023-05-02T06:23:46;12.90;99.90
7738;DHT22;29398;45.328;5.558;2023-05-02T06:24:47;12.90;99.90
7738;DHT22;29398;45.328;5.558;2023-05-02T06:25:50;12.80;99.90
7738;DHT22;29398;45.328;5.558;2023-05-02T06:26:51;12.80;99.90
7738;DHT22;29398;45.328;5.558;2023-05-02T06:27:53;12.90;99.90
7738;DHT22;29398;45.328;5.558;2023-05-02T06:28:54;12.90;99.90
7738;DHT22;29398;45.328;5.558;2023-05-02T06:29:57;12.90;99.90
7738;DHT22;29398;45.328;5.558;2023-05-02T06:30:58;13.00;99.90
7738;DHT22;29398;45.328;5.558;2023-05-02T06:32:01;13.10;99.90
7738;DHT22;29398;45.328;5.558;2023-05-02T06:33:04;13.10;99.90
7738;DHT22;29398;45.328;5.558;2023-05-02T06:34:05;13.10;99.90
7738;DHT22;29398;45.328;5.558;2023-05-02T06:35:08;13.10;99.90
7738;DHT22;29398;45.328;5.558;2023-05-02T06:36:09;13.20;99.90
7738;DHT22;29398;45.328;5.558;2023-05-02T06:37:11;13.20;99.90
7738;DHT22;29398;45.328;5.558;2023-05-02T06:38:12;13.30;99.90
7738;DHT22;29398;45.328;5.558;2023-05-02T06:39:17;13.40;99.90
7738;DHT22;29398;45.328;5.558;2023-05-02T06:40:19;13.40;99.90
7738;DHT22;29398;45.328;5.558;2023-05-02T06:41:22;13.40;99.90
7738;DHT22;29398;45.328;5.558;2023-05-02T06:42:24;13.40;99.90
7738;DHT22;29398;45.328;5.558;2023-05-02T06:43:25;13.50;99.90
7738;DHT22;29398;45.328;5.558;2023-05-02T06:44:28;13.50;99.90
7738;DHT22;29398;45.328;5.558;2023-05-02T06:45:29;13.50;99.90
7738;DHT22;29398;45.328;5.558;2023-05-02T06:46:31;13.60;99.90
7738;DHT22;29398;45.328;5.558;2023-05-02T06:47:32;13.70;99.90
7738;DHT22;29398;45.328;5.558;2023-05-02T06:48:34;13.70;99.90
7738;DHT22;29398;45.328;5.558;2023-05-02T06:49:37;13.80;99.90
7738;DHT22;29398;45.328;5.558;2023-05-02T06:50:38;13.70;99.90
7738;DHT22;29398;45.328;5.558;2023-05-02T06:51:40;13.70;99.90
7738;DHT22;29398;45.328;5.558;2023-05-02T06:52:42;13.70;99.90
7738;DHT22;29398;45.328;5.558;2023-05-02T06:53:43;13.80;99.90
7738;DHT22;29398;45.328;5.558;2023-05-02T06:54:45;13.80;99.90
7738;DHT22;29398;45.328;5.558;2023-05-02T06:55:47;13.80;99.90